Mirage, Colorado
Current Conditions -  °F | °C
As of 2:10 AM on Wednesday 26 Nov 2014 (Local Time) from KRCV Reporting Station
Clear Clear  
Wind Chill: 10°   Ceiling: Unl
Heat Index: 17°   Visibility: 10mi
Dew Point:   Wind: 5mph
Humidity: 68%   Direction: 260°W
Pressure: 30.26"   Gusts: NA
Location:  37.9777°N, 105.779°W
Report Text: KRCV 260910Z AUTO 26004KT 10SM CLR M08/M13 A3026 RMK AO2 T10841133
Loading
Personal Weather Stations






























Interactive Weather Map New forecast layout! Learn more

10-Day Weather Forecast

Advertisements
Track Severe Weather on mobile